Volant, Pennsylvania
Current Conditions -  °F | °C
As of 12:51 PM on Saturday 25 Oct 2014 (Local Time) from KYNG Reporting Station
Broken Clouds Broken Clouds  
Wind Chill: 64°   Ceiling: 5000
Heat Index: 64°   Visibility: 10mi
Dew Point: 49°   Wind: 20mph
Humidity: 58%   Direction: 230°SW
Pressure: 29.81"   Gusts: 25mph
Location:  41.11°N, 80.26°W
Report Text: KYNG 251651Z 23017G22KT 10SM SCT035 BKN050 18/09 A2981 RMK AO2 SLP093 T01780094 $
Loading
Personal Weather Stations






























Interactive Weather Map
Tropical Storm Tracking
New forecast layout! Learn more

10-Day Weather Forecast

Advertisements
Track Severe Weather on mobile